Time;durP1;ratioP1;P1;durP2;ratioP2;P2;SDS_P1;SDS_P2;PMS_P1;PMS_P2;Temp;Humidity;BMP_temperature;BMP_pressure;BME280_temperature;BME280_humidity;BME280_pressure;Samples;Min_cycle;Max_cycle;Signal;HPM_P1;HPM_P2
2022/09/24 00:01:23;;;;;;;17.50;11.23;;;;;;;;;;10478292;28;20192;-79
2022/09/24 00:06:45;;;;;;;20.40;11.80;;;;;;;;;;10477091;28;20250;-80
2022/09/24 00:12:10;;;;;;;21.83;11.87;;;;;;;;;;10477628;28;20195;-82
2022/09/24 00:17:32;;;;;;;18.50;11.83;;;;;;;;;;10463098;28;20201;-82
2022/09/24 00:22:53;;;;;;;20.03;12.80;;;;;;;;;;10462906;28;20209;-82
2022/09/24 00:28:15;;;;;;;18.67;12.13;;;;;;;;;;10494681;28;20305;-81
2022/09/24 00:33:36;;;;;;;18.87;12.20;;;;;;;;;;10463192;28;20189;-79
2022/09/24 00:38:58;;;;;;;18.73;12.40;;;;;;;;;;10449208;28;20497;-80
2022/09/24 00:44:39;;;;;;;20.23;12.57;;;;;;;;;;10475964;28;20186;-78
2022/09/24 00:50:21;;;;;;;19.57;12.17;;;;;;;;;;10476547;28;20222;-81
2022/09/24 00:55:44;;;;;;;20.33;11.50;;;;;;;;;;10476158;28;20485;-80
2022/09/24 01:01:07;;;;;;;18.00;11.10;;;;;;;;;;10476220;28;20232;-78
2022/09/24 01:06:28;;;;;;;16.07;10.50;;;;;;;;;;10475884;28;20243;-79
2022/09/24 01:12:00;;;;;;;17.23;11.07;;;;;;;;;;10478024;28;20267;-82
2022/09/24 01:17:39;;;;;;;16.43;10.90;;;;;;;;;;10455429;28;20204;-78
2022/09/24 01:23:07;;;;;;;21.23;12.80;;;;;;;;;;10469054;28;20199;-81
2022/09/24 01:28:54;;;;;;;18.13;12.13;;;;;;;;;;10492342;28;20239;-82
2022/09/24 01:34:21;;;;;;;19.37;12.63;;;;;;;;;;10441589;28;20226;-78
2022/09/24 01:39:44;;;;;;;20.10;12.73;;;;;;;;;;10442502;28;20195;-78
2022/09/24 01:45:06;;;;;;;19.67;11.37;;;;;;;;;;10440702;28;20196;-82
2022/09/24 01:50:30;;;;;;;18.53;11.17;;;;;;;;;;10445973;28;20195;-81
2022/09/24 01:56:05;;;;;;;14.17;10.33;;;;;;;;;;10482007;28;20228;-79
2022/09/24 02:01:30;;;;;;;17.10;10.83;;;;;;;;;;10453793;28;20215;-80
2022/09/24 02:06:57;;;;;;;12.97;9.43;;;;;;;;;;10481609;28;20310;-81
2022/09/24 02:12:28;;;;;;;10.57;8.47;;;;;;;;;;10481380;28;20211;-79
2022/09/24 02:17:53;;;;;;;13.67;9.47;;;;;;;;;;10467484;28;20247;-81
2022/09/24 02:23:15;;;;;;;12.27;7.70;;;;;;;;;;10452742;28;20204;-82
2022/09/24 02:28:37;;;;;;;21.17;13.53;;;;;;;;;;10475065;28;20239;-81
2022/09/24 02:34:19;;;;;;;22.93;14.40;;;;;;;;;;10425285;28;20419;-81
2022/09/24 02:39:41;;;;;;;17.70;11.63;;;;;;;;;;10440729;28;20333;-81
2022/09/24 02:45:03;;;;;;;17.60;10.83;;;;;;;;;;10424853;28;20204;-82
2022/09/24 02:50:25;;;;;;;15.53;10.67;;;;;;;;;;10456066;28;20217;-81
2022/09/24 02:55:46;;;;;;;16.07;10.20;;;;;;;;;;10480510;28;20199;-81
2022/09/24 03:01:08;;;;;;;14.60;9.50;;;;;;;;;;10465405;28;20211;-82
2022/09/24 03:06:30;;;;;;;14.73;10.27;;;;;;;;;;10465382;28;20338;-79
2022/09/24 03:11:51;;;;;;;14.93;10.23;;;;;;;;;;10464998;28;20184;-81
2022/09/24 03:17:13;;;;;;;12.80;9.37;;;;;;;;;;10464958;28;20207;-82
2022/09/24 03:22:35;;;;;;;13.87;9.53;;;;;;;;;;10478322;28;20206;-82
2022/09/24 03:27:56;;;;;;;15.47;10.00;;;;;;;;;;10474181;28;20300;-82
2022/09/24 03:33:18;;;;;;;13.23;9.77;;;;;;;;;;10478543;28;20200;-81
2022/09/24 03:38:41;;;;;;;13.03;8.80;;;;;;;;;;10463432;28;20201;-82
2022/09/24 03:44:02;;;;;;;13.33;9.20;;;;;;;;;;10464339;28;20199;-78
2022/09/24 03:49:24;;;;;;;12.27;8.10;;;;;;;;;;10464318;28;20243;-79
2022/09/24 03:54:46;;;;;;;13.50;8.57;;;;;;;;;;10468603;28;20199;-81
2022/09/24 04:00:08;;;;;;;12.90;8.83;;;;;;;;;;10482254;28;20209;-82
2022/09/24 04:05:30;;;;;;;15.83;9.60;;;;;;;;;;10476881;28;20552;-81
2022/09/24 04:10:54;;;;;;;14.93;9.63;;;;;;;;;;10477267;28;20218;-81
2022/09/24 04:16:15;;;;;;;18.37;11.47;;;9.90;1.00;;;;;;10463339;28;20214;-81
2022/09/24 04:21:36;;;;;;;18.77;13.00;;;9.90;1.00;;;;;;10469367;28;20493;-82
2022/09/24 04:26:58;;;;;;;15.13;10.50;;;;;;;;;;10476425;28;20252;-79
2022/09/24 04:32:20;;;;;;;17.27;10.70;;;;;;;;;;10462490;28;20221;-81
2022/09/24 04:37:42;;;;;;;23.50;13.97;;;;;;;;;;10476717;28;20192;-82
2022/09/24 04:43:04;;;;;;;23.20;14.33;;;10.00;1.00;;;;;;10476427;28;20222;-80
2022/09/24 04:48:27;;;;;;;24.23;15.80;;;;;;;;;;10465953;28;20216;-78
2022/09/24 04:53:49;;;;;;;19.37;13.53;;;9.90;1.00;;;;;;10484198;28;20230;-79
2022/09/24 04:59:10;;;;;;;20.13;12.80;;;10.20;1.00;;;;;;10485344;28;20235;-79
2022/09/24 05:04:32;;;;;;;20.93;13.33;;;9.70;1.00;;;;;;10483775;28;20558;-79
2022/09/24 05:09:53;;;;;;;24.83;14.13;;;10.10;1.00;;;;;;10469470;28;20421;-79
2022/09/24 05:15:14;;;;;;;24.20;14.67;;;9.40;1.00;;;;;;10485067;28;20270;-81
2022/09/24 05:20:35;;;;;;;28.77;16.90;;;10.10;1.00;;;;;;10468806;28;20217;-79
2022/09/24 05:31:36;;;;;;;39.60;20.80;;;;;;;;;;10453385;28;20537;-80
2022/09/24 05:36:58;;;;;;;29.20;14.20;;;10.20;1.00;;;;;;10468648;28;20505;-82
2022/09/24 05:42:20;;;;;;;20.90;12.17;;;10.20;99.90;;;;;;10483804;28;20193;-82
2022/09/24 05:47:41;;;;;;;20.70;10.87;;;10.30;99.90;;;;;;10481733;28;20231;-79
2022/09/24 05:53:04;;;;;;;15.77;10.30;;;10.30;99.90;;;;;;10467769;28;20252;-81
2022/09/24 05:58:26;;;;;;;15.63;9.93;;;10.30;99.90;;;;;;10467428;28;20201;-82
2022/09/24 06:03:47;;;;;;;13.57;9.80;;;10.30;99.90;;;;;;10482590;28;20242;-80
2022/09/24 06:09:09;;;;;;;16.30;10.43;;;10.40;99.90;;;;;;10481696;28;20228;-79
2022/09/24 06:14:30;;;;;;;14.67;10.00;;;10.50;99.90;;;;;;10453184;28;20198;-79
2022/09/24 06:19:51;;;;;;;12.97;8.63;;;10.60;99.90;;;;;;10466568;28;20522;-80
2022/09/24 06:25:13;;;;;;;11.83;8.70;;;10.70;99.90;;;;;;10490706;28;20391;-80
2022/09/24 06:30:37;;;;;;;14.27;9.63;;;;;;;;;;10458586;28;20290;-81
2022/09/24 06:36:00;;;;;;;11.90;8.40;;;10.80;1.00;;;;;;10465669;28;20200;-79
2022/09/24 06:41:21;;;;;;;12.00;9.13;;;10.90;1.00;;;;;;10481605;28;20194;-83
2022/09/24 06:46:42;;;;;;;17.77;11.33;;;11.20;1.00;;;;;;10466048;28;20209;-81
2022/09/24 06:52:04;;;;;;;15.43;10.47;;;11.50;1.00;;;;;;10451577;28;20538;-83
2022/09/24 06:57:25;;;;;;;18.23;10.97;;;12.00;1.00;;;;;;10479577;28;20197;-80
2022/09/24 07:02:51;;;;;;;22.17;14.30;;;;;;;;;;10479388;28;20201;-80
2022/09/24 07:08:12;;;;;;;26.75;15.40;;;13.20;99.90;;;;;;10478832;28;20287;-79
2022/09/24 07:13:34;;;;;;;18.45;12.68;;;14.50;99.90;;;;;;10478124;28;20206;-80
2022/09/24 07:18:55;;;;;;;15.27;10.43;;;15.30;99.90;;;;;;10464364;28;20194;-80
2022/09/24 07:24:16;;;;;;;19.88;10.57;;;15.90;99.90;;;;;;10483878;28;20202;-81
2022/09/24 07:29:38;;;;;;;11.55;8.90;;;16.20;1.00;;;;;;10447536;28;20340;-81
2022/09/24 07:34:59;;;;;;;15.02;8.68;;;16.00;99.90;;;;;;10464322;28;20207;-80
2022/09/24 07:40:22;;;;;;;12.40;9.38;;;15.30;99.90;;;;;;10464335;28;20201;-80
2022/09/24 07:45:44;;;;;;;13.05;8.15;;;15.20;1.00;;;;;;10478461;28;20191;-82
2022/09/24 07:51:09;;;;;;;13.32;9.15;;;15.70;1.00;;;;;;10464427;28;20246;-81
2022/09/24 07:56:31;;;;;;;10.30;7.00;;;16.00;1.00;;;;;;10463989;28;20200;-82
2022/09/24 08:01:52;;;;;;;9.43;6.85;;;;;;;;;;10463908;28;20242;-82
2022/09/24 08:07:14;;;;;;;9.45;6.40;;;17.40;99.90;;;;;;10478118;28;20235;-80
2022/09/24 08:12:35;;;;;;;10.82;6.72;;;17.70;1.00;;;;;;10476958;28;20200;-80
2022/09/24 08:18:04;;;;;;;8.90;6.50;;;18.00;99.90;;;;;;10463498;28;20331;-80
2022/09/24 08:23:26;;;;;;;9.07;6.63;;;;;;;;;;10482372;28;20207;-81
2022/09/24 08:28:48;;;;;;;8.23;5.82;;;19.50;1.00;;;;;;10477063;28;20256;-81
2022/09/24 08:34:09;;;;;;;8.13;5.20;;;20.10;1.00;;;;;;10472300;28;20191;-81
2022/09/24 08:39:32;;;;;;;6.57;5.10;;;20.30;1.00;;;;;;10475692;28;20356;-80
2022/09/24 08:50:40;;;;;;;6.25;4.30;;;19.00;1.00;;;;;;10484349;28;20298;-82
2022/09/24 08:56:04;;;;;;;8.82;4.72;;;18.90;1.00;;;;;;10484128;28;20184;-81
2022/09/24 09:01:33;;;;;;;9.88;5.32;;;18.60;99.90;;;;;;10485219;28;20192;-83
2022/09/24 09:07:16;;;;;;;6.65;5.10;;;17.90;99.90;;;;;;10484616;28;20224;-80
2022/09/24 09:12:39;;;;;;;8.82;5.72;;;17.70;99.90;;;;;;10484084;28;20197;-80
2022/09/24 09:18:40;;;;;;;12.00;5.28;;;18.60;99.90;;;;;;10470162;28;20505;-81
2022/09/24 09:24:03;;;;;;;12.13;5.18;;;19.60;99.90;;;;;;10486991;28;20211;-81
2022/09/24 09:29:26;;;;;;;7.80;5.30;;;20.10;99.90;;;;;;10454640;28;20261;-83
2022/09/24 09:35:12;;;;;;;6.95;4.65;;;20.90;99.90;;;;;;10469121;28;20188;-81
2022/09/24 09:40:47;;;;;;;5.68;4.45;;;21.10;99.90;;;;;;10468905;28;20498;-81
2022/09/24 09:46:14;;;;;;;7.68;4.30;;;;;;;;;;10482523;28;20191;-82
2022/09/24 09:51:41;;;;;;;4.75;2.90;;;21.90;1.00;;;;;;10482156;28;20196;-79
2022/09/24 09:57:05;;;;;;;4.53;2.35;;;22.30;99.90;;;;;;10454209;28;20192;-83
2022/09/24 10:02:32;;;;;;;3.08;2.20;;;22.90;1.00;;;;;;10485563;28;20187;-83
2022/09/24 10:07:56;;;;;;;4.65;2.50;;;23.20;1.00;;;;;;10481557;28;20234;-81
2022/09/24 10:13:17;;;;;;;13.32;5.32;;;23.30;1.00;;;;;;10468045;28;20198;-82
2022/09/24 10:18:57;;;;;;;2.45;2.05;;;23.50;1.00;;;;;;10482975;28;20274;-83
2022/09/24 10:24:23;;;;;;;3.90;3.05;;;;;;;;;;10474953;28;20513;-83
2022/09/24 10:35:34;;;;;;;4.95;1.70;;;20.60;99.90;;;;;;10481097;28;20274;-82
2022/09/24 10:41:30;;;;;;;2.75;2.10;;;21.70;99.90;;;;;;10482689;28;20442;-83
2022/09/24 10:47:19;;;;;;;1.80;1.60;;;22.60;99.90;;;;;;10479724;28;20254;-82
2022/09/24 10:53:05;;;;;;;3.60;2.25;;;22.60;1.00;;;;;;10437820;28;20378;-79
2022/09/24 10:58:50;;;;;;;4.80;2.80;;;22.50;99.90;;;;;;10465628;28;20196;-79
2022/09/24 11:04:41;;;;;;;5.00;2.83;;;21.90;1.00;;;;;;10465959;28;20239;-81
2022/09/24 11:10:06;;;;;;;5.60;3.70;;;20.60;99.90;;;;;;10478563;28;20227;-81
2022/09/24 11:16:06;;;;;;;3.85;2.30;;;20.30;99.90;;;;;;10480002;28;20202;-81
2022/09/24 11:21:47;;;;;;;6.90;3.60;;;20.50;43.70;;;;;;10479158;28;20195;-79
2022/09/24 11:27:17;;;;;;;8.45;5.50;;;20.10;1.00;;;;;;10474031;28;20228;-82
2022/09/24 11:33:00;;;;;;;5.93;3.80;;;19.40;1.00;;;;;;10479019;28;20487;-79
2022/09/24 11:38:54;;;;;;;6.03;2.80;;;19.00;1.00;;;;;;10449816;28;20199;-81
2022/09/24 11:44:56;;;;;;;4.70;3.47;;;19.00;1.00;;;;;;10478918;28;20191;-81
2022/09/24 11:50:33;;;;;;;9.23;4.13;;;19.20;1.00;;;;;;10474344;28;20231;-81
2022/09/24 11:55:59;;;;;;;6.00;4.57;;;19.30;1.00;;;;;;10474680;28;20203;-80
2022/09/24 12:01:27;;;;;;;3.67;2.72;;;19.40;1.00;;;;;;10475170;28;20527;-81
2022/09/24 12:07:11;;;;;;;4.32;2.20;;;19.60;1.00;;;;;;10474326;28;20238;-80
2022/09/24 12:12:41;;;;;;;9.05;5.28;;;19.60;1.00;;;;;;10474618;28;20227;-80
2022/09/24 12:18:14;;;;;;;8.27;4.78;;;19.60;1.00;;;;;;10438309;28;20196;-82
2022/09/24 12:23:43;;;;;;;5.35;3.22;;;19.60;1.00;;;;;;10427957;28;20288;-78
2022/09/24 12:35:07;;;;;;;10.02;4.30;;;19.40;99.90;;;;;;10353763;28;20239;-79
2022/09/24 12:40:56;;;;;;;7.47;4.70;;;19.20;1.00;;;;;;10355008;28;20202;-80
2022/09/24 12:46:25;;;;;;;6.88;4.40;;;18.90;99.90;;;;;;10340194;28;20208;-81
2022/09/24 12:51:46;;;;;;;6.45;4.07;;;18.60;1.00;;;;;;10394107;28;20220;-79
2022/09/24 12:57:34;;;;;;;13.38;5.20;;;18.20;1.00;;;;;;10380539;28;20280;-80
2022/09/24 13:02:56;;;;;;;9.60;5.43;;;18.20;99.90;;;;;;10393829;28;20200;-82
2022/09/24 13:08:21;;;;;;;9.27;5.15;;;18.20;1.00;;;;;;10473418;28;20243;-81
2022/09/24 13:13:43;;;;;;;12.38;5.97;;;18.10;1.00;;;;;;10470574;28;20200;-80
2022/09/24 13:19:37;;;;;;;9.75;5.35;;;18.20;1.00;;;;;;10486866;28;20213;-79
2022/09/24 13:25:08;;;;;;;7.50;4.00;;;18.30;1.00;;;;;;10492271;28;20210;-79
2022/09/24 13:30:35;;;;;;;7.88;4.78;;;18.30;76.40;;;;;;10444573;28;20379;-79
2022/09/24 13:36:09;;;;;;;8.55;4.82;;;18.30;53.60;;;;;;10469199;28;20508;-78
2022/09/24 13:41:44;;;;;;;5.05;3.55;;;18.20;1.00;;;;;;10483083;28;20190;-78
2022/09/24 13:47:30;;;;;;;4.13;3.58;;;18.30;1.00;;;;;;10482272;28;20268;-79
2022/09/24 13:52:59;;;;;;;6.45;4.80;;;18.10;99.90;;;;;;10483477;28;20198;-78
2022/09/24 13:58:34;;;;;;;10.45;6.60;;;18.00;99.90;;;;;;10467967;28;20366;-78
2022/09/24 14:04:02;;;;;;;4.57;3.63;;;17.90;1.00;;;;;;10453638;28;20488;-79
2022/09/24 14:09:35;;;;;;;7.35;4.68;;;17.80;1.00;;;;;;10482827;28;20234;-80
2022/09/24 14:14:58;;;;;;;8.45;5.00;;;17.70;99.90;;;;;;10467066;28;20266;-81
2022/09/24 14:20:21;;;;;;;6.60;4.30;;;17.90;1.00;;;;;;10466592;28;20493;-78
2022/09/24 14:25:42;;;;;;;6.15;3.90;;;17.70;46.10;;;;;;10476856;28;20197;-80
2022/09/24 14:31:07;;;;;;;5.15;3.47;;;17.50;1.00;;;;;;10480502;28;20229;-81
2022/09/24 14:36:28;;;;;;;5.32;2.97;;;17.30;1.00;;;;;;10480666;28;20233;-81
2022/09/24 14:41:49;;;;;;;5.13;3.30;;;17.20;1.00;;;;;;10480592;28;20189;-79
2022/09/24 14:47:26;;;;;;;8.68;6.05;;;17.10;1.00;;;;;;10479769;28;20393;-78
2022/09/24 14:52:59;;;;;;;6.00;2.70;;;17.00;99.90;;;;;;10465566;28;20502;-78
2022/09/24 14:58:30;;;;;;;3.92;3.00;;;16.80;1.00;;;;;;10465256;28;20206;-78
2022/09/24 15:03:56;;;;;;;4.43;3.25;;;16.60;99.90;;;;;;10465429;28;20276;-78
2022/09/24 15:09:29;;;;;;;4.05;2.53;;;16.40;1.00;;;;;;10465305;28;20272;-78
2022/09/24 15:15:25;;;;;;;4.45;2.72;;;16.40;1.00;;;;;;10464985;28;20267;-78
2022/09/24 15:20:46;;;;;;;3.40;2.67;;;16.30;21.00;;;;;;10478876;28;20454;-78
2022/09/24 15:26:08;;;;;;;3.60;2.97;;;16.20;1.00;;;;;;10494750;28;20223;-78
2022/09/24 15:31:30;;;;;;;3.63;3.22;;;16.00;1.00;;;;;;10493937;28;20214;-78
2022/09/24 15:37:19;;;;;;;5.43;4.47;;;16.10;1.00;;;;;;10479339;28;20206;-78
2022/09/24 15:42:40;;;;;;;26.13;19.15;;;16.10;1.00;;;;;;10464298;28;20498;-82
2022/09/24 15:48:02;;;;;;;20.48;10.77;;;16.10;6.50;;;;;;10477205;28;20517;-77
2022/09/24 15:53:25;;;;;;;11.88;7.60;;;16.00;99.90;;;;;;10478685;28;20521;-81
2022/09/24 15:58:46;;;;;;;8.57;5.13;;;15.80;1.00;;;;;;10463404;28;20211;-81
2022/09/24 16:04:10;;;;;;;38.10;17.35;;;15.80;99.90;;;;;;10478343;28;20232;-79
2022/09/24 16:09:32;;;;;;;30.77;12.77;;;15.80;99.90;;;;;;10477367;28;20430;-78
2022/09/24 16:14:57;;;;;;;27.20;15.57;;;15.70;1.00;;;;;;10477130;28;20274;-78
2022/09/24 16:20:19;;;;;;;17.63;9.80;;;;;;;;;;10477325;28;20198;-78
2022/09/24 16:26:01;;;;;;;15.73;9.85;;;;;;;;;;10486396;28;20550;-78
2022/09/24 16:31:22;;;;;;;18.42;10.35;;;15.30;1.00;;;;;;10476802;28;20229;-78
2022/09/24 16:36:44;;;;;;;17.50;11.80;;;15.00;1.00;;;;;;10477117;28;20268;-78
2022/09/24 16:42:05;;;;;;;16.13;11.10;;;14.90;1.00;;;;;;10463737;28;20363;-78
2022/09/24 16:47:30;;;;;;;22.60;15.60;;;;;;;;;;10470965;28;20246;-79
2022/09/24 16:52:54;;;;;;;19.60;12.85;;;14.40;1.00;;;;;;10485718;28;20229;-80
2022/09/24 16:58:15;;;;;;;16.70;10.38;;;14.20;1.00;;;;;;10469882;28;20198;-79
2022/09/24 17:03:37;;;;;;;13.45;9.07;;;14.00;99.90;;;;;;10484169;28;20195;-79
2022/09/24 17:14:38;;;;;;;19.17;13.57;;;13.70;99.90;;;;;;10485074;28;20191;-81
2022/09/24 17:20:00;;;;;;;31.83;21.33;;;13.70;99.90;;;;;;10484721;28;20202;-78
2022/09/24 17:25:21;;;;;;;46.05;31.00;;;13.60;33.10;;;;;;10478846;28;20509;-78
2022/09/24 17:30:44;;;;;;;71.32;49.55;;;13.50;99.90;;;;;;10484159;28;20635;-78
2022/09/24 17:36:08;;;;;;;64.33;43.30;;;13.40;1.00;;;;;;10454755;28;20192;-81
2022/09/24 17:41:29;;;;;;;46.60;32.10;;;13.40;92.50;;;;;;10482762;28;20507;-78
2022/09/24 17:46:51;;;;;;;46.33;30.90;;;13.30;99.90;;;;;;10482199;28;20416;-80
2022/09/24 17:52:12;;;;;;;53.70;31.37;;;13.10;1.00;;;;;;10485662;28;20293;-81
2022/09/24 17:57:34;;;;;;;55.27;33.80;;;13.30;46.80;;;;;;10487961;28;20237;-80
2022/09/24 18:02:55;;;;;;;60.78;37.70;;;13.20;99.90;;;;;;10501107;28;20218;-81
2022/09/24 18:13:37;;;;;;;61.23;41.27;;;13.20;1.00;;;;;;10481867;28;20266;-78
2022/09/24 18:19:00;;;;;;;61.33;39.57;;;13.10;1.00;;;;;;10482383;28;20448;-78
2022/09/24 18:24:21;;;;;;;68.35;40.95;;;13.10;1.00;;;;;;10472617;28;20384;-81
2022/09/24 18:29:43;;;;;;;64.03;40.93;;;13.10;1.00;;;;;;10464237;28;20276;-81
2022/09/24 18:35:08;;;;;;;67.53;43.50;;;13.10;1.00;;;;;;10480665;28;20214;-81
2022/09/24 18:40:29;;;;;;;69.15;44.03;;;13.20;1.00;;;;;;10473583;28;20187;-78
2022/09/24 18:45:51;;;;;;;65.38;41.42;;;13.20;1.00;;;;;;10481265;28;20243;-78
2022/09/24 18:51:20;;;;;;;52.42;33.03;;;13.20;99.90;;;;;;10465687;28;20261;-81
2022/09/24 18:56:42;;;;;;;43.97;27.88;;;13.20;99.90;;;;;;10480114;28;20219;-81
2022/09/24 19:02:04;;;;;;;40.17;24.20;;;13.10;99.90;;;;;;10479493;28;20209;-81
2022/09/24 19:07:25;;;;;;;33.63;20.40;;;13.20;99.90;;;;;;10464207;28;20530;-79
2022/09/24 19:12:47;;;;;;;37.43;22.13;;;13.20;1.00;;;;;;10464928;28;20545;-81
2022/09/24 19:18:13;;;;;;;40.85;24.00;;;13.10;1.00;;;;;;10464846;28;20203;-81
2022/09/24 19:23:44;;;;;;;33.83;21.17;;;13.10;99.90;;;;;;10473414;28;20228;-81
2022/09/24 19:29:05;;;;;;;36.40;21.93;;;13.10;1.00;;;;;;10443057;28;20299;-81
2022/09/24 19:34:26;;;;;;;34.73;21.47;;;13.00;1.00;;;;;;10464224;28;20207;-81
2022/09/24 19:39:48;;;;;;;34.45;21.85;;;12.90;1.00;;;;;;10478066;28;20208;-81
2022/09/24 19:45:09;;;;;;;35.40;22.38;;;12.90;99.90;;;;;;10450074;28;20202;-81
2022/09/24 19:50:33;;;;;;;43.37;23.60;;;12.80;1.00;;;;;;10477383;28;20448;-82
2022/09/24 19:55:55;;;;;;;35.87;22.43;;;12.80;1.00;;;;;;10463703;28;20430;-78
2022/09/24 20:01:16;;;;;;;41.13;23.13;;;12.70;1.00;;;;;;10477482;28;20244;-78
2022/09/24 20:06:38;;;;;;;39.77;23.07;;;12.70;1.00;;;;;;10476911;28;20238;-78
2022/09/24 20:11:59;;;;;;;31.37;19.97;;;12.70;99.90;;;;;;10462738;28;20309;-78
2022/09/24 20:17:20;;;;;;;27.27;17.83;;;12.70;1.00;;;;;;10476660;28;20264;-79
2022/09/24 20:22:42;;;;;;;29.77;19.53;;;12.70;1.00;;;;;;10476590;28;20272;-81
2022/09/24 20:28:03;;;;;;;30.37;20.27;;;12.70;1.00;;;;;;10486228;28;20203;-78
2022/09/24 20:33:25;;;;;;;43.23;27.10;;;12.70;1.00;;;;;;10473779;28;20232;-78
2022/09/24 20:38:47;;;;;;;58.30;34.83;;;12.70;1.00;;;;;;10463112;28;20191;-78
2022/09/24 20:44:08;;;;;;;61.40;34.53;;;12.70;1.00;;;;;;10476519;28;20198;-81
2022/09/24 20:49:29;;;;;;;59.53;34.00;;;12.70;1.00;;;;;;10462003;28;20222;-82
2022/09/24 20:54:50;;;;;;;50.93;29.70;;;12.70;1.00;;;;;;10476705;28;20211;-80
2022/09/24 21:00:13;;;;;;;35.07;22.07;;;12.70;1.00;;;;;;10475706;28;20201;-81
2022/09/24 21:05:34;;;;;;;32.03;19.83;;;12.70;99.90;;;;;;10477307;28;20275;-81
2022/09/24 21:11:11;;;;;;;26.90;15.87;;;12.70;99.90;;;;;;10475896;28;20229;-78
2022/09/24 21:16:33;;;;;;;34.30;18.60;;;12.70;1.00;;;;;;10481854;28;20490;-78
2022/09/24 21:21:54;;;;;;;42.87;21.17;;;12.70;1.00;;;;;;10482690;28;20208;-78
2022/09/24 21:27:18;;;;;;;32.80;18.95;;;12.60;1.00;;;;;;10507986;28;20205;-81
2022/09/24 21:32:40;;;;;;;34.43;19.87;;;12.60;1.00;;;;;;10496043;28;20214;-78
2022/09/24 21:38:04;;;;;;;31.37;20.03;;;12.60;1.00;;;;;;10472229;28;20197;-78
2022/09/24 21:43:26;;;;;;;33.87;19.93;;;12.60;1.00;;;;;;10487481;28;20379;-79
2022/09/24 21:48:52;;;;;;;42.80;23.90;;;12.50;99.90;;;;;;10485690;28;20253;-80
2022/09/24 21:54:16;;;;;;;33.13;21.30;;;12.50;99.90;;;;;;10483647;28;20188;-81
2022/09/24 22:00:12;;;;;;;30.58;18.50;;;12.50;99.90;;;;;;10485574;28;20198;-81
2022/09/24 22:05:24;;;;;;;26.60;16.63;;;12.50;99.90;;;;;;10485182;28;20246;-81
2022/09/24 22:10:46;;;;;;;23.80;15.70;;;12.40;99.90;;;;;;10484950;28;20249;-78
2022/09/24 22:16:09;;;;;;;25.17;16.92;;;12.40;99.90;;;;;;10486394;28;20436;-81
2022/09/24 22:21:32;;;;;;;27.37;16.07;;;12.30;1.00;;;;;;10486042;28;20281;-81
2022/09/24 22:26:53;;;;;;;23.93;15.20;;;12.30;1.00;;;;;;10486779;28;20202;-78
2022/09/24 22:32:15;;;;;;;22.33;14.23;;;12.20;99.90;;;;;;10482746;28;20221;-80
2022/09/24 22:37:36;;;;;;;21.33;13.50;;;12.00;99.90;;;;;;10469008;28;20199;-80
2022/09/24 22:42:58;;;;;;;20.50;13.50;;;12.10;99.90;;;;;;10485976;28;20186;-76
2022/09/24 22:48:19;;;;;;;33.20;18.70;;;12.00;99.90;;;;;;10492552;28;20426;-78
2022/09/24 22:53:41;;;;;;;35.40;22.53;;;12.10;99.90;;;;;;10481015;28;20193;-78
2022/09/24 22:59:03;;;;;;;31.40;19.57;;;12.10;83.80;;;;;;10479925;28;20199;-79
2022/09/24 23:04:24;;;;;;;33.33;18.80;;;12.00;1.00;;;;;;10479356;28;20450;-77
2022/09/24 23:09:46;;;;;;;27.97;17.87;;;12.00;64.20;;;;;;10479284;28;20237;-79
2022/09/24 23:15:08;;;;;;;25.73;16.40;;;12.00;1.00;;;;;;10478794;28;20222;-79
2022/09/24 23:20:29;;;;;;;22.73;15.37;;;12.00;1.00;;;;;;10480218;28;20194;-78
2022/09/24 23:25:50;;;;;;;24.07;15.80;;;12.00;8.10;;;;;;10487597;28;20854;-79
2022/09/24 23:31:13;;;;;;;23.43;15.07;;;12.00;99.90;;;;;;10479406;28;20229;-81
2022/09/24 23:36:35;;;;;;;28.00;17.03;;;11.90;99.90;;;;;;10464145;28;20225;-80
2022/09/24 23:41:56;;;;;;;23.40;15.57;;;11.90;99.90;;;;;;10463343;28;20197;-78
2022/09/24 23:47:17;;;;;;;30.13;16.70;;;11.90;99.90;;;;;;10463638;28;20200;-77
2022/09/24 23:52:38;;;;;;;25.23;16.17;;;11.90;1.00;;;;;;10477202;28;20274;-80
2022/09/24 23:58:00;;;;;;;22.63;14.70;;;11.90;1.00;;;;;;10464043;28;20231;-78
